sensor_id;sensor_type;location;lat;lon;timestamp;P1;durP1;ratioP1;P2;durP2;ratioP2
77091;SDS011;66032;48.252;11.638;2023-03-05T00:01:05;24.52;;;10.45;;
77091;SDS011;66032;48.252;11.638;2023-03-05T00:03:33;26.33;;;11.32;;
77091;SDS011;66032;48.252;11.638;2023-03-05T00:06:01;22.55;;;9.93;;
77091;SDS011;66032;48.252;11.638;2023-03-05T00:08:28;19.55;;;8.23;;
77091;SDS011;66032;48.252;11.638;2023-03-05T00:10:56;25.75;;;12.05;;
77091;SDS011;66032;48.252;11.638;2023-03-05T00:13:25;22.13;;;10.65;;
77091;SDS011;66032;48.252;11.638;2023-03-05T00:15:52;31.50;;;13.88;;
77091;SDS011;66032;48.252;11.638;2023-03-05T00:18:20;27.02;;;13.50;;
77091;SDS011;66032;48.252;11.638;2023-03-05T00:20:47;26.98;;;13.20;;
77091;SDS011;66032;48.252;11.638;2023-03-05T00:23:15;29.90;;;13.52;;
77091;SDS011;66032;48.252;11.638;2023-03-05T00:25:42;30.95;;;12.98;;
77091;SDS011;66032;48.252;11.638;2023-03-05T00:28:11;33.20;;;13.95;;
77091;SDS011;66032;48.252;11.638;2023-03-05T00:30:39;31.17;;;14.23;;
77091;SDS011;66032;48.252;11.638;2023-03-05T00:33:06;27.58;;;13.05;;
77091;SDS011;66032;48.252;11.638;2023-03-05T00:35:41;31.70;;;14.48;;
77091;SDS011;66032;48.252;11.638;2023-03-05T00:38:10;29.77;;;12.88;;
77091;SDS011;66032;48.252;11.638;2023-03-05T00:40:39;28.85;;;13.27;;
77091;SDS011;66032;48.252;11.638;2023-03-05T00:43:06;32.70;;;13.32;;
77091;SDS011;66032;48.252;11.638;2023-03-05T00:45:35;26.50;;;12.07;;
77091;SDS011;66032;48.252;11.638;2023-03-05T00:48:02;31.88;;;13.50;;
77091;SDS011;66032;48.252;11.638;2023-03-05T00:50:30;31.60;;;14.13;;
77091;SDS011;66032;48.252;11.638;2023-03-05T00:52:57;30.67;;;13.80;;
77091;SDS011;66032;48.252;11.638;2023-03-05T00:55:25;24.38;;;11.32;;
77091;SDS011;66032;48.252;11.638;2023-03-05T00:57:52;29.60;;;12.85;;
77091;SDS011;66032;48.252;11.638;2023-03-05T01:00:19;29.27;;;13.05;;
77091;SDS011;66032;48.252;11.638;2023-03-05T01:02:47;23.13;;;10.70;;
77091;SDS011;66032;48.252;11.638;2023-03-05T01:05:14;29.73;;;13.70;;
77091;SDS011;66032;48.252;11.638;2023-03-05T01:07:41;29.13;;;12.63;;
77091;SDS011;66032;48.252;11.638;2023-03-05T01:10:09;31.23;;;14.15;;
77091;SDS011;66032;48.252;11.638;2023-03-05T01:12:37;32.35;;;14.48;;
77091;SDS011;66032;48.252;11.638;2023-03-05T01:15:05;28.55;;;13.00;;
77091;SDS011;66032;48.252;11.638;2023-03-05T01:17:33;26.52;;;11.90;;
77091;SDS011;66032;48.252;11.638;2023-03-05T01:20:00;31.13;;;14.15;;
77091;SDS011;66032;48.252;11.638;2023-03-05T01:22:27;24.50;;;11.27;;
77091;SDS011;66032;48.252;11.638;2023-03-05T01:24:54;28.70;;;12.45;;
77091;SDS011;66032;48.252;11.638;2023-03-05T01:27:22;25.95;;;11.25;;
77091;SDS011;66032;48.252;11.638;2023-03-05T01:29:49;25.30;;;11.05;;
77091;SDS011;66032;48.252;11.638;2023-03-05T01:32:16;26.55;;;12.02;;
77091;SDS011;66032;48.252;11.638;2023-03-05T01:34:44;30.60;;;14.40;;
77091;SDS011;66032;48.252;11.638;2023-03-05T01:37:11;31.33;;;13.07;;
77091;SDS011;66032;48.252;11.638;2023-03-05T01:39:38;29.55;;;14.10;;
77091;SDS011;66032;48.252;11.638;2023-03-05T01:42:05;30.73;;;13.90;;
77091;SDS011;66032;48.252;11.638;2023-03-05T01:44:33;32.53;;;14.70;;
77091;SDS011;66032;48.252;11.638;2023-03-05T01:47:02;37.20;;;16.60;;
77091;SDS011;66032;48.252;11.638;2023-03-05T01:49:32;24.45;;;12.50;;
77091;SDS011;66032;48.252;11.638;2023-03-05T01:52:14;28.67;;;13.00;;
77091;SDS011;66032;48.252;11.638;2023-03-05T01:54:49;36.25;;;15.60;;
77091;SDS011;66032;48.252;11.638;2023-03-05T01:57:20;33.55;;;13.10;;
77091;SDS011;66032;48.252;11.638;2023-03-05T01:59:50;24.80;;;11.75;;
77091;SDS011;66032;48.252;11.638;2023-03-05T02:02:21;35.70;;;15.00;;
77091;SDS011;66032;48.252;11.638;2023-03-05T02:04:50;36.33;;;16.58;;
77091;SDS011;66032;48.252;11.638;2023-03-05T02:07:22;33.47;;;15.40;;
77091;SDS011;66032;48.252;11.638;2023-03-05T02:09:50;32.67;;;14.88;;
77091;SDS011;66032;48.252;11.638;2023-03-05T02:12:18;34.47;;;15.48;;
77091;SDS011;66032;48.252;11.638;2023-03-05T02:14:46;29.58;;;13.55;;
77091;SDS011;66032;48.252;11.638;2023-03-05T02:17:16;36.65;;;17.58;;
77091;SDS011;66032;48.252;11.638;2023-03-05T02:19:51;34.00;;;15.20;;
77091;SDS011;66032;48.252;11.638;2023-03-05T02:22:21;36.22;;;16.70;;
77091;SDS011;66032;48.252;11.638;2023-03-05T02:24:50;35.92;;;15.93;;
77091;SDS011;66032;48.252;11.638;2023-03-05T02:27:19;36.50;;;15.38;;
77091;SDS011;66032;48.252;11.638;2023-03-05T02:29:49;37.50;;;16.10;;
77091;SDS011;66032;48.252;11.638;2023-03-05T02:32:17;36.03;;;16.90;;
77091;SDS011;66032;48.252;11.638;2023-03-05T02:34:44;29.80;;;13.18;;
77091;SDS011;66032;48.252;11.638;2023-03-05T02:37:12;35.95;;;16.70;;
77091;SDS011;66032;48.252;11.638;2023-03-05T02:39:39;29.02;;;12.50;;
77091;SDS011;66032;48.252;11.638;2023-03-05T02:42:07;36.33;;;16.85;;
77091;SDS011;66032;48.252;11.638;2023-03-05T02:44:35;32.50;;;13.98;;
77091;SDS011;66032;48.252;11.638;2023-03-05T02:47:03;31.50;;;14.38;;
77091;SDS011;66032;48.252;11.638;2023-03-05T02:49:32;34.58;;;14.68;;
77091;SDS011;66032;48.252;11.638;2023-03-05T02:51:59;35.30;;;17.20;;
77091;SDS011;66032;48.252;11.638;2023-03-05T02:54:26;37.72;;;17.13;;
77091;SDS011;66032;48.252;11.638;2023-03-05T02:56:54;30.63;;;13.95;;
77091;SDS011;66032;48.252;11.638;2023-03-05T02:59:21;28.38;;;13.30;;
77091;SDS011;66032;48.252;11.638;2023-03-05T03:01:48;39.15;;;16.80;;
77091;SDS011;66032;48.252;11.638;2023-03-05T03:04:15;33.55;;;15.45;;
77091;SDS011;66032;48.252;11.638;2023-03-05T03:06:42;41.58;;;17.15;;
77091;SDS011;66032;48.252;11.638;2023-03-05T03:09:09;29.83;;;13.25;;
77091;SDS011;66032;48.252;11.638;2023-03-05T03:11:37;31.83;;;14.18;;
77091;SDS011;66032;48.252;11.638;2023-03-05T03:14:04;35.85;;;15.63;;
77091;SDS011;66032;48.252;11.638;2023-03-05T03:16:32;37.17;;;15.57;;
77091;SDS011;66032;48.252;11.638;2023-03-05T03:18:59;29.17;;;13.75;;
77091;SDS011;66032;48.252;11.638;2023-03-05T03:21:26;32.22;;;14.68;;
77091;SDS011;66032;48.252;11.638;2023-03-05T03:23:53;31.25;;;14.18;;
77091;SDS011;66032;48.252;11.638;2023-03-05T03:26:21;33.97;;;15.40;;
77091;SDS011;66032;48.252;11.638;2023-03-05T03:28:48;25.92;;;12.52;;
77091;SDS011;66032;48.252;11.638;2023-03-05T03:31:16;28.13;;;12.93;;
77091;SDS011;66032;48.252;11.638;2023-03-05T03:33:43;28.65;;;12.68;;
77091;SDS011;66032;48.252;11.638;2023-03-05T03:36:11;27.13;;;12.35;;
77091;SDS011;66032;48.252;11.638;2023-03-05T03:38:38;27.27;;;12.43;;
77091;SDS011;66032;48.252;11.638;2023-03-05T03:41:05;33.15;;;13.82;;
77091;SDS011;66032;48.252;11.638;2023-03-05T03:43:34;32.90;;;14.73;;
77091;SDS011;66032;48.252;11.638;2023-03-05T03:46:03;31.83;;;14.10;;
77091;SDS011;66032;48.252;11.638;2023-03-05T03:48:32;31.10;;;13.68;;
77091;SDS011;66032;48.252;11.638;2023-03-05T03:51:02;35.38;;;15.63;;
77091;SDS011;66032;48.252;11.638;2023-03-05T03:53:30;38.03;;;16.98;;
77091;SDS011;66032;48.252;11.638;2023-03-05T03:55:58;36.58;;;16.15;;
77091;SDS011;66032;48.252;11.638;2023-03-05T03:58:25;38.15;;;16.38;;
77091;SDS011;66032;48.252;11.638;2023-03-05T04:00:52;35.05;;;16.30;;
77091;SDS011;66032;48.252;11.638;2023-03-05T04:03:20;29.08;;;12.95;;
77091;SDS011;66032;48.252;11.638;2023-03-05T04:05:47;33.30;;;15.77;;
77091;SDS011;66032;48.252;11.638;2023-03-05T04:08:14;32.72;;;14.52;;
77091;SDS011;66032;48.252;11.638;2023-03-05T04:10:41;35.25;;;14.70;;
77091;SDS011;66032;48.252;11.638;2023-03-05T04:13:08;27.27;;;12.25;;
77091;SDS011;66032;48.252;11.638;2023-03-05T04:15:35;35.75;;;14.18;;
77091;SDS011;66032;48.252;11.638;2023-03-05T04:18:02;36.10;;;17.00;;
77091;SDS011;66032;48.252;11.638;2023-03-05T04:20:30;34.17;;;14.93;;
77091;SDS011;66032;48.252;11.638;2023-03-05T04:22:57;25.95;;;13.02;;
77091;SDS011;66032;48.252;11.638;2023-03-05T04:25:24;29.98;;;13.65;;
77091;SDS011;66032;48.252;11.638;2023-03-05T04:27:52;29.77;;;13.15;;
77091;SDS011;66032;48.252;11.638;2023-03-05T04:30:19;30.48;;;14.38;;
77091;SDS011;66032;48.252;11.638;2023-03-05T04:32:46;33.33;;;15.27;;
77091;SDS011;66032;48.252;11.638;2023-03-05T04:35:13;29.45;;;14.07;;
77091;SDS011;66032;48.252;11.638;2023-03-05T04:37:41;29.92;;;14.05;;
77091;SDS011;66032;48.252;11.638;2023-03-05T04:40:08;37.55;;;14.82;;
77091;SDS011;66032;48.252;11.638;2023-03-05T04:42:35;32.47;;;14.52;;
77091;SDS011;66032;48.252;11.638;2023-03-05T04:45:03;34.08;;;14.85;;
77091;SDS011;66032;48.252;11.638;2023-03-05T04:47:32;34.22;;;16.85;;
77091;SDS011;66032;48.252;11.638;2023-03-05T04:50:00;35.25;;;15.38;;
77091;SDS011;66032;48.252;11.638;2023-03-05T04:52:27;33.10;;;15.05;;
77091;SDS011;66032;48.252;11.638;2023-03-05T04:54:54;32.95;;;13.90;;
77091;SDS011;66032;48.252;11.638;2023-03-05T04:57:21;31.17;;;14.32;;
77091;SDS011;66032;48.252;11.638;2023-03-05T04:59:49;36.05;;;14.30;;
77091;SDS011;66032;48.252;11.638;2023-03-05T05:02:17;39.28;;;15.88;;
77091;SDS011;66032;48.252;11.638;2023-03-05T05:04:44;39.42;;;15.75;;
77091;SDS011;66032;48.252;11.638;2023-03-05T05:07:11;38.15;;;15.90;;
77091;SDS011;66032;48.252;11.638;2023-03-05T05:09:38;28.33;;;13.60;;
77091;SDS011;66032;48.252;11.638;2023-03-05T05:12:07;33.42;;;15.25;;
77091;SDS011;66032;48.252;11.638;2023-03-05T05:14:36;34.70;;;14.40;;
77091;SDS011;66032;48.252;11.638;2023-03-05T05:17:03;27.83;;;12.18;;
77091;SDS011;66032;48.252;11.638;2023-03-05T05:19:31;27.92;;;12.98;;
77091;SDS011;66032;48.252;11.638;2023-03-05T05:21:59;32.33;;;14.25;;
77091;SDS011;66032;48.252;11.638;2023-03-05T05:24:27;32.42;;;14.65;;
77091;SDS011;66032;48.252;11.638;2023-03-05T05:26:54;30.33;;;13.38;;
77091;SDS011;66032;48.252;11.638;2023-03-05T05:29:22;30.52;;;12.20;;
77091;SDS011;66032;48.252;11.638;2023-03-05T05:31:49;32.97;;;14.48;;
77091;SDS011;66032;48.252;11.638;2023-03-05T05:34:17;35.38;;;14.45;;
77091;SDS011;66032;48.252;11.638;2023-03-05T05:36:44;26.52;;;11.63;;
77091;SDS011;66032;48.252;11.638;2023-03-05T05:39:11;24.45;;;10.65;;
77091;SDS011;66032;48.252;11.638;2023-03-05T05:41:38;30.25;;;13.30;;
77091;SDS011;66032;48.252;11.638;2023-03-05T05:44:05;29.98;;;13.23;;
77091;SDS011;66032;48.252;11.638;2023-03-05T05:46:32;24.15;;;11.35;;
77091;SDS011;66032;48.252;11.638;2023-03-05T05:49:00;26.17;;;10.95;;
77091;SDS011;66032;48.252;11.638;2023-03-05T05:51:27;32.72;;;14.32;;
77091;SDS011;66032;48.252;11.638;2023-03-05T05:53:54;36.28;;;15.68;;
77091;SDS011;66032;48.252;11.638;2023-03-05T05:56:21;28.27;;;12.15;;
77091;SDS011;66032;48.252;11.638;2023-03-05T05:58:49;33.45;;;13.85;;
77091;SDS011;66032;48.252;11.638;2023-03-05T06:01:26;32.95;;;13.43;;
77091;SDS011;66032;48.252;11.638;2023-03-05T06:03:56;28.85;;;12.68;;
77091;SDS011;66032;48.252;11.638;2023-03-05T06:06:25;36.63;;;15.18;;
77091;SDS011;66032;48.252;11.638;2023-03-05T06:08:53;29.50;;;13.00;;
77091;SDS011;66032;48.252;11.638;2023-03-05T06:11:21;28.67;;;12.10;;
77091;SDS011;66032;48.252;11.638;2023-03-05T06:13:48;23.58;;;10.90;;
77091;SDS011;66032;48.252;11.638;2023-03-05T06:16:20;30.63;;;14.73;;
77091;SDS011;66032;48.252;11.638;2023-03-05T06:18:50;28.95;;;12.55;;
77091;SDS011;66032;48.252;11.638;2023-03-05T06:21:18;27.77;;;11.20;;
77091;SDS011;66032;48.252;11.638;2023-03-05T06:23:47;33.17;;;13.90;;
77091;SDS011;66032;48.252;11.638;2023-03-05T06:26:16;28.67;;;12.90;;
77091;SDS011;66032;48.252;11.638;2023-03-05T06:28:45;30.35;;;13.20;;
77091;SDS011;66032;48.252;11.638;2023-03-05T06:31:14;26.17;;;11.52;;
77091;SDS011;66032;48.252;11.638;2023-03-05T06:33:43;32.22;;;14.10;;
77091;SDS011;66032;48.252;11.638;2023-03-05T06:36:12;29.10;;;13.23;;
77091;SDS011;66032;48.252;11.638;2023-03-05T06:38:41;27.08;;;12.13;;
77091;SDS011;66032;48.252;11.638;2023-03-05T06:41:12;24.00;;;11.35;;
77091;SDS011;66032;48.252;11.638;2023-03-05T06:43:43;24.90;;;10.77;;
77091;SDS011;66032;48.252;11.638;2023-03-05T06:48:49;35.60;;;14.73;;
77091;SDS011;66032;48.252;11.638;2023-03-05T06:51:19;24.13;;;11.40;;
77091;SDS011;66032;48.252;11.638;2023-03-05T06:53:48;28.42;;;11.95;;
77091;SDS011;66032;48.252;11.638;2023-03-05T06:56:17;33.53;;;13.93;;
77091;SDS011;66032;48.252;11.638;2023-03-05T06:58:46;32.35;;;13.38;;
77091;SDS011;66032;48.252;11.638;2023-03-05T07:01:16;30.33;;;12.25;;
77091;SDS011;66032;48.252;11.638;2023-03-05T07:03:47;27.65;;;12.00;;
77091;SDS011;66032;48.252;11.638;2023-03-05T07:06:19;27.50;;;10.40;;
77091;SDS011;66032;48.252;11.638;2023-03-05T07:08:48;31.25;;;13.35;;
77091;SDS011;66032;48.252;11.638;2023-03-05T07:11:17;26.08;;;12.18;;
77091;SDS011;66032;48.252;11.638;2023-03-05T07:13:45;32.33;;;13.55;;
77091;SDS011;66032;48.252;11.638;2023-03-05T07:16:17;33.38;;;14.77;;
77091;SDS011;66032;48.252;11.638;2023-03-05T07:18:47;24.10;;;11.65;;
77091;SDS011;66032;48.252;11.638;2023-03-05T07:21:16;31.48;;;13.95;;
77091;SDS011;66032;48.252;11.638;2023-03-05T07:23:46;27.67;;;12.85;;
77091;SDS011;66032;48.252;11.638;2023-03-05T07:26:14;33.88;;;13.10;;
77091;SDS011;66032;48.252;11.638;2023-03-05T07:28:41;30.02;;;13.35;;
77091;SDS011;66032;48.252;11.638;2023-03-05T07:31:13;29.05;;;12.60;;
77091;SDS011;66032;48.252;11.638;2023-03-05T07:33:45;30.40;;;12.95;;
77091;SDS011;66032;48.252;11.638;2023-03-05T07:36:16;25.20;;;11.27;;
77091;SDS011;66032;48.252;11.638;2023-03-05T07:38:44;25.63;;;11.55;;
77091;SDS011;66032;48.252;11.638;2023-03-05T07:41:12;34.58;;;13.77;;
77091;SDS011;66032;48.252;11.638;2023-03-05T07:43:46;32.13;;;13.80;;
77091;SDS011;66032;48.252;11.638;2023-03-05T07:46:15;27.98;;;11.88;;
77091;SDS011;66032;48.252;11.638;2023-03-05T07:48:44;21.30;;;10.10;;
77091;SDS011;66032;48.252;11.638;2023-03-05T07:51:13;38.35;;;19.90;;
77091;SDS011;66032;48.252;11.638;2023-03-05T07:53:43;31.90;;;15.00;;
77091;SDS011;66032;48.252;11.638;2023-03-05T07:56:11;26.67;;;12.10;;
77091;SDS011;66032;48.252;11.638;2023-03-05T07:58:39;31.20;;;13.50;;
77091;SDS011;66032;48.252;11.638;2023-03-05T08:01:09;27.70;;;13.13;;
77091;SDS011;66032;48.252;11.638;2023-03-05T08:03:41;22.40;;;11.00;;
77091;SDS011;66032;48.252;11.638;2023-03-05T08:06:09;29.63;;;13.38;;
77091;SDS011;66032;48.252;11.638;2023-03-05T08:08:38;27.27;;;12.77;;
77091;SDS011;66032;48.252;11.638;2023-03-05T08:11:09;29.05;;;12.82;;
77091;SDS011;66032;48.252;11.638;2023-03-05T08:13:38;28.27;;;11.15;;
77091;SDS011;66032;48.252;11.638;2023-03-05T08:16:07;26.45;;;12.43;;
77091;SDS011;66032;48.252;11.638;2023-03-05T08:18:40;27.73;;;11.77;;
77091;SDS011;66032;48.252;11.638;2023-03-05T08:21:14;28.08;;;11.60;;
77091;SDS011;66032;48.252;11.638;2023-03-05T08:23:43;25.95;;;11.35;;
77091;SDS011;66032;48.252;11.638;2023-03-05T08:26:11;33.33;;;14.38;;
77091;SDS011;66032;48.252;11.638;2023-03-05T08:28:39;22.88;;;11.15;;
77091;SDS011;66032;48.252;11.638;2023-03-05T08:31:07;26.10;;;12.48;;
77091;SDS011;66032;48.252;11.638;2023-03-05T08:33:36;22.70;;;9.55;;
77091;SDS011;66032;48.252;11.638;2023-03-05T08:36:04;22.90;;;10.65;;
77091;SDS011;66032;48.252;11.638;2023-03-05T08:38:31;28.02;;;12.90;;
77091;SDS011;66032;48.252;11.638;2023-03-05T08:40:59;25.27;;;11.80;;
77091;SDS011;66032;48.252;11.638;2023-03-05T08:43:26;26.13;;;12.27;;
77091;SDS011;66032;48.252;11.638;2023-03-05T08:45:54;28.75;;;13.10;;
77091;SDS011;66032;48.252;11.638;2023-03-05T08:48:21;25.98;;;11.55;;
77091;SDS011;66032;48.252;11.638;2023-03-05T08:50:48;28.65;;;11.68;;
77091;SDS011;66032;48.252;11.638;2023-03-05T08:53:16;32.17;;;13.25;;
77091;SDS011;66032;48.252;11.638;2023-03-05T08:55:43;25.00;;;11.00;;
77091;SDS011;66032;48.252;11.638;2023-03-05T08:58:18;27.10;;;12.23;;
77091;SDS011;66032;48.252;11.638;2023-03-05T09:00:45;23.58;;;10.65;;
77091;SDS011;66032;48.252;11.638;2023-03-05T09:03:13;27.95;;;12.52;;
77091;SDS011;66032;48.252;11.638;2023-03-05T09:05:40;25.42;;;11.38;;
77091;SDS011;66032;48.252;11.638;2023-03-05T09:08:07;27.30;;;12.07;;
77091;SDS011;66032;48.252;11.638;2023-03-05T09:10:35;25.60;;;11.93;;
77091;SDS011;66032;48.252;11.638;2023-03-05T09:13:02;28.80;;;12.55;;
77091;SDS011;66032;48.252;11.638;2023-03-05T09:15:29;27.13;;;12.02;;
77091;SDS011;66032;48.252;11.638;2023-03-05T09:17:57;28.30;;;11.98;;
77091;SDS011;66032;48.252;11.638;2023-03-05T09:20:25;29.90;;;11.48;;
77091;SDS011;66032;48.252;11.638;2023-03-05T09:22:53;31.13;;;13.63;;
77091;SDS011;66032;48.252;11.638;2023-03-05T09:25:20;26.92;;;12.13;;
77091;SDS011;66032;48.252;11.638;2023-03-05T09:27:48;25.10;;;11.80;;
77091;SDS011;66032;48.252;11.638;2023-03-05T09:30:15;26.30;;;12.25;;
77091;SDS011;66032;48.252;11.638;2023-03-05T09:32:43;28.20;;;12.55;;
77091;SDS011;66032;48.252;11.638;2023-03-05T09:35:10;26.05;;;11.57;;
77091;SDS011;66032;48.252;11.638;2023-03-05T09:37:38;27.83;;;12.00;;
77091;SDS011;66032;48.252;11.638;2023-03-05T09:40:05;24.65;;;11.55;;
77091;SDS011;66032;48.252;11.638;2023-03-05T09:53:07;26.58;;;11.77;;
77091;SDS011;66032;48.252;11.638;2023-03-05T09:55:38;27.67;;;10.98;;
77091;SDS011;66032;48.252;11.638;2023-03-05T09:58:17;23.13;;;11.50;;
77091;SDS011;66032;48.252;11.638;2023-03-05T10:01:10;21.85;;;10.63;;
77091;SDS011;66032;48.252;11.638;2023-03-05T10:03:47;25.20;;;12.45;;
77091;SDS011;66032;48.252;11.638;2023-03-05T10:06:23;27.30;;;12.95;;
77091;SDS011;66032;48.252;11.638;2023-03-05T10:09:11;24.35;;;11.45;;
77091;SDS011;66032;48.252;11.638;2023-03-05T10:11:42;19.40;;;9.80;;
77091;SDS011;66032;48.252;11.638;2023-03-05T10:14:34;22.25;;;10.98;;
77091;SDS011;66032;48.252;11.638;2023-03-05T10:17:52;26.77;;;12.90;;
77091;SDS011;66032;48.252;11.638;2023-03-05T10:20:32;20.25;;;9.68;;
77091;SDS011;66032;48.252;11.638;2023-03-05T10:26:01;23.60;;;11.23;;
77091;SDS011;66032;48.252;11.638;2023-03-05T10:32:01;26.73;;;11.80;;
77091;SDS011;66032;48.252;11.638;2023-03-05T10:48:30;21.27;;;10.27;;
77091;SDS011;66032;48.252;11.638;2023-03-05T10:51:03;24.13;;;12.40;;
77091;SDS011;66032;48.252;11.638;2023-03-05T10:53:58;22.27;;;10.15;;
77091;SDS011;66032;48.252;11.638;2023-03-05T10:56:34;19.90;;;9.38;;
77091;SDS011;66032;48.252;11.638;2023-03-05T10:59:02;20.10;;;10.02;;
77091;SDS011;66032;48.252;11.638;2023-03-05T11:01:29;20.83;;;9.57;;
77091;SDS011;66032;48.252;11.638;2023-03-05T11:04:01;22.75;;;10.68;;
77091;SDS011;66032;48.252;11.638;2023-03-05T11:06:36;19.75;;;10.18;;
77091;SDS011;66032;48.252;11.638;2023-03-05T11:09:20;25.48;;;11.35;;
77091;SDS011;66032;48.252;11.638;2023-03-05T11:14:31;23.60;;;11.80;;
77091;SDS011;66032;48.252;11.638;2023-03-05T11:16:59;22.80;;;10.95;;
77091;SDS011;66032;48.252;11.638;2023-03-05T11:19:29;17.00;;;8.90;;
77091;SDS011;66032;48.252;11.638;2023-03-05T11:22:17;23.02;;;10.82;;
77091;SDS011;66032;48.252;11.638;2023-03-05T11:27:36;21.15;;;10.27;;
77091;SDS011;66032;48.252;11.638;2023-03-05T11:30:17;24.50;;;11.15;;
77091;SDS011;66032;48.252;11.638;2023-03-05T11:32:47;22.50;;;11.75;;
77091;SDS011;66032;48.252;11.638;2023-03-05T11:35:28;25.30;;;11.73;;
77091;SDS011;66032;48.252;11.638;2023-03-05T11:40:32;22.25;;;10.18;;
77091;SDS011;66032;48.252;11.638;2023-03-05T11:43:03;20.10;;;10.20;;
77091;SDS011;66032;48.252;11.638;2023-03-05T11:45:31;23.05;;;11.82;;
77091;SDS011;66032;48.252;11.638;2023-03-05T11:48:07;20.65;;;9.73;;
77091;SDS011;66032;48.252;11.638;2023-03-05T11:50:39;18.73;;;8.52;;
77091;SDS011;66032;48.252;11.638;2023-03-05T11:53:14;20.50;;;9.43;;
77091;SDS011;66032;48.252;11.638;2023-03-05T11:55:53;22.40;;;10.20;;
77091;SDS011;66032;48.252;11.638;2023-03-05T11:58:30;22.17;;;11.18;;
77091;SDS011;66032;48.252;11.638;2023-03-05T12:00:59;20.95;;;10.32;;
77091;SDS011;66032;48.252;11.638;2023-03-05T12:03:30;25.15;;;11.40;;
77091;SDS011;66032;48.252;11.638;2023-03-05T12:09:06;21.63;;;10.23;;
77091;SDS011;66032;48.252;11.638;2023-03-05T12:12:01;24.52;;;11.25;;
77091;SDS011;66032;48.252;11.638;2023-03-05T12:14:47;19.17;;;9.02;;
77091;SDS011;66032;48.252;11.638;2023-03-05T12:17:24;20.83;;;9.60;;
77091;SDS011;66032;48.252;11.638;2023-03-05T12:22:38;20.27;;;10.25;;
77091;SDS011;66032;48.252;11.638;2023-03-05T12:27:52;21.30;;;11.20;;
77091;SDS011;66032;48.252;11.638;2023-03-05T12:33:00;20.67;;;8.77;;
77091;SDS011;66032;48.252;11.638;2023-03-05T12:35:33;21.73;;;9.75;;
77091;SDS011;66032;48.252;11.638;2023-03-05T12:38:27;18.07;;;9.27;;
77091;SDS011;66032;48.252;11.638;2023-03-05T12:46:34;20.83;;;10.27;;
77091;SDS011;66032;48.252;11.638;2023-03-05T12:51:46;24.02;;;10.90;;
77091;SDS011;66032;48.252;11.638;2023-03-05T12:54:29;23.27;;;10.23;;
77091;SDS011;66032;48.252;11.638;2023-03-05T12:56:57;20.27;;;10.50;;
77091;SDS011;66032;48.252;11.638;2023-03-05T12:59:41;20.00;;;10.00;;
77091;SDS011;66032;48.252;11.638;2023-03-05T13:05:16;19.52;;;9.07;;
77091;SDS011;66032;48.252;11.638;2023-03-05T13:07:44;21.75;;;10.90;;
77091;SDS011;66032;48.252;11.638;2023-03-05T13:10:27;19.25;;;9.38;;
77091;SDS011;66032;48.252;11.638;2023-03-05T13:12:56;21.23;;;10.02;;
77091;SDS011;66032;48.252;11.638;2023-03-05T13:15:24;23.77;;;10.75;;
77091;SDS011;66032;48.252;11.638;2023-03-05T13:23:08;22.30;;;9.15;;
77091;SDS011;66032;48.252;11.638;2023-03-05T13:26:02;18.17;;;8.30;;
77091;SDS011;66032;48.252;11.638;2023-03-05T13:28:30;16.65;;;8.88;;
77091;SDS011;66032;48.252;11.638;2023-03-05T13:31:02;15.90;;;8.48;;
77091;SDS011;66032;48.252;11.638;2023-03-05T13:33:38;15.82;;;7.55;;
77091;SDS011;66032;48.252;11.638;2023-03-05T13:36:06;17.85;;;9.20;;
77091;SDS011;66032;48.252;11.638;2023-03-05T13:38:39;18.77;;;9.23;;
77091;SDS011;66032;48.252;11.638;2023-03-05T13:43:42;17.60;;;8.20;;
77091;SDS011;66032;48.252;11.638;2023-03-05T13:46:11;18.77;;;8.65;;
77091;SDS011;66032;48.252;11.638;2023-03-05T13:48:39;19.73;;;9.50;;
77091;SDS011;66032;48.252;11.638;2023-03-05T13:51:06;19.80;;;9.35;;
77091;SDS011;66032;48.252;11.638;2023-03-05T13:53:35;19.30;;;8.70;;
77091;SDS011;66032;48.252;11.638;2023-03-05T13:56:03;20.00;;;9.27;;
77091;SDS011;66032;48.252;11.638;2023-03-05T13:58:52;18.25;;;9.50;;
77091;SDS011;66032;48.252;11.638;2023-03-05T14:01:34;17.55;;;8.98;;
77091;SDS011;66032;48.252;11.638;2023-03-05T14:06:49;21.38;;;9.63;;
77091;SDS011;66032;48.252;11.638;2023-03-05T14:09:21;20.75;;;10.32;;
77091;SDS011;66032;48.252;11.638;2023-03-05T14:12:00;21.75;;;9.50;;
77091;SDS011;66032;48.252;11.638;2023-03-05T14:14:30;21.13;;;9.57;;
77091;SDS011;66032;48.252;11.638;2023-03-05T14:19:49;17.60;;;9.00;;
77091;SDS011;66032;48.252;11.638;2023-03-05T14:22:33;23.58;;;10.18;;
77091;SDS011;66032;48.252;11.638;2023-03-05T14:25:03;22.40;;;10.00;;
77091;SDS011;66032;48.252;11.638;2023-03-05T14:27:34;19.08;;;9.35;;
77091;SDS011;66032;48.252;11.638;2023-03-05T14:30:03;21.83;;;9.73;;
77091;SDS011;66032;48.252;11.638;2023-03-05T14:32:31;22.55;;;10.02;;
77091;SDS011;66032;48.252;11.638;2023-03-05T14:35:02;19.23;;;9.68;;
77091;SDS011;66032;48.252;11.638;2023-03-05T14:37:33;20.23;;;9.15;;
77091;SDS011;66032;48.252;11.638;2023-03-05T14:40:06;20.02;;;9.15;;
77091;SDS011;66032;48.252;11.638;2023-03-05T14:42:34;23.25;;;10.77;;
77091;SDS011;66032;48.252;11.638;2023-03-05T14:45:15;18.17;;;8.18;;
77091;SDS011;66032;48.252;11.638;2023-03-05T14:47:45;20.90;;;9.10;;
77091;SDS011;66032;48.252;11.638;2023-03-05T14:50:17;15.45;;;8.40;;
77091;SDS011;66032;48.252;11.638;2023-03-05T14:52:47;19.65;;;9.38;;
77091;SDS011;66032;48.252;11.638;2023-03-05T14:55:18;17.45;;;8.07;;
77091;SDS011;66032;48.252;11.638;2023-03-05T14:57:48;17.65;;;8.57;;
77091;SDS011;66032;48.252;11.638;2023-03-05T15:00:21;18.85;;;8.48;;
77091;SDS011;66032;48.252;11.638;2023-03-05T15:02:51;18.13;;;8.40;;
77091;SDS011;66032;48.252;11.638;2023-03-05T15:05:18;16.85;;;7.88;;
77091;SDS011;66032;48.252;11.638;2023-03-05T15:07:46;17.05;;;7.63;;
77091;SDS011;66032;48.252;11.638;2023-03-05T15:10:15;15.43;;;7.25;;
77091;SDS011;66032;48.252;11.638;2023-03-05T15:12:44;16.67;;;8.60;;
77091;SDS011;66032;48.252;11.638;2023-03-05T15:15:13;13.57;;;7.60;;
77091;SDS011;66032;48.252;11.638;2023-03-05T15:17:41;14.85;;;7.38;;
77091;SDS011;66032;48.252;11.638;2023-03-05T15:20:23;16.20;;;8.10;;
77091;SDS011;66032;48.252;11.638;2023-03-05T15:22:52;14.15;;;7.25;;
77091;SDS011;66032;48.252;11.638;2023-03-05T15:25:21;14.88;;;7.32;;
77091;SDS011;66032;48.252;11.638;2023-03-05T15:27:49;14.55;;;7.18;;
77091;SDS011;66032;48.252;11.638;2023-03-05T15:30:23;11.30;;;5.32;;
77091;SDS011;66032;48.252;11.638;2023-03-05T15:32:57;17.17;;;7.57;;
77091;SDS011;66032;48.252;11.638;2023-03-05T15:35:27;14.50;;;6.90;;
77091;SDS011;66032;48.252;11.638;2023-03-05T15:37:55;18.58;;;7.43;;
77091;SDS011;66032;48.252;11.638;2023-03-05T15:40:23;13.93;;;6.80;;
77091;SDS011;66032;48.252;11.638;2023-03-05T15:42:53;13.15;;;6.50;;
77091;SDS011;66032;48.252;11.638;2023-03-05T15:45:22;12.55;;;6.68;;